Time;durP1;ratioP1;P1;durP2;ratioP2;P2;SDS_P1;SDS_P2;PMS_P1;PMS_P2;Temp;Humidity;BMP_temperature;BMP_pressure;BME280_temperature;BME280_humidity;BME280_pressure;Samples;Min_cycle;Max_cycle;Signal;HPM_P1;HPM_P2
2023/04/21 00:00:00;;;;;;;;;6.00;3.25;;;;;;;;119858;1191;26057;-64
2023/04/21 00:02:28;;;;;;;;;2.50;1.75;;;;;;;;119735;1184;25445;-64
2023/04/21 00:04:57;;;;;;;;;4.00;4.00;;;;;;;;120075;1177;24983;-64
2023/04/21 00:07:25;;;;;;;;;5.75;4.50;;;;;;;;119937;1190;24708;-64
2023/04/21 00:09:53;;;;;;;;;5.75;4.00;;;;;;;;119914;1182;25979;-64
2023/04/21 00:12:21;;;;;;;;;6.00;5.00;;;;;;;;119937;1190;25558;-64
2023/04/21 00:14:50;;;;;;;;;5.00;5.00;;;;;;;;119929;1190;24683;-66
2023/04/21 00:17:18;;;;;;;;;3.75;3.75;;;;;;;;119906;1190;25768;-64
2023/04/21 00:19:46;;;;;;;;;5.67;5.00;;;;;;;;119908;1190;24944;-66
2023/04/21 00:22:15;;;;;;;;;3.00;3.00;;;;;;;;120076;1177;26233;-65
2023/04/21 00:24:44;;;;;;;;;4.67;4.67;;;;;;;;119926;1190;25197;-65
2023/04/21 00:27:14;;;;;;;;;3.00;3.00;;;;;;;;119896;1190;26182;-62
2023/04/21 00:29:42;;;;;;;;;1.50;1.00;;;;;;;;119725;1191;25066;-65
2023/04/21 00:32:10;;;;;;;;;5.00;5.00;;;;;;;;119918;1190;24952;-65
2023/04/21 00:34:39;;;;;;;;;3.50;3.50;;;;;;;;119903;1187;25177;-65
2023/04/21 00:37:07;;;;;;;;;4.00;4.00;;;;;;;;119921;1190;25371;-65
2023/04/21 00:39:35;;;;;;;;;4.33;4.00;;;;;;;;119910;1190;25168;-65
2023/04/21 00:42:03;;;;;;;;;6.50;4.00;;;;;;;;119927;1177;25101;-65
2023/04/21 00:44:31;;;;;;;;;5.33;3.00;;;;;;;;119912;1182;24752;-65
2023/04/21 00:47:00;;;;;;;;;6.00;4.00;;;;;;;;119741;1190;25456;-64
2023/04/21 00:49:28;;;;;;;;;2.00;2.00;;;;;;;;119912;1190;25633;-64
2023/04/21 00:51:57;;;;;;;;;3.33;3.00;;;;;;;;119883;1187;24735;-64
2023/04/21 00:54:26;;;;;;;;;3.33;3.33;;;;;;;;119904;1190;25142;-65
2023/04/21 00:56:57;;;;;;;;;3.00;3.00;;;;;;;;119918;1190;24927;-64
2023/04/21 00:59:25;;;;;;;;;3.67;3.00;;;;;;;;119910;1190;24838;-64
2023/04/21 01:01:53;;;;;;;;;4.00;3.75;;;;;;;;119907;1190;25437;-64
2023/04/21 01:04:22;;;;;;;;;3.00;3.00;;;;;;;;119930;1182;25165;-64
2023/04/21 01:06:50;;;;;;;;;6.00;2.00;;;;;;;;119864;1188;24732;-64
2023/04/21 01:09:20;;;;;;;;;4.00;4.00;;;;;;;;119901;1190;24877;-65
2023/04/21 01:12:05;;;;;;;;;6.33;5.00;;;;;;;;119860;1190;24927;-65
2023/04/21 01:14:34;;;;;;;;;5.00;3.00;;;;;;;;119890;1190;25107;-65
2023/04/21 01:17:04;;;;;;;;;6.00;4.00;;;;;;;;119876;1190;25644;-64
2023/04/21 01:19:38;;;;;;;;;4.75;2.50;;;;;;;;119717;1190;25313;-64
2023/04/21 01:22:10;;;;;;;;;3.25;3.25;;;;;;;;119885;1190;24822;-65
2023/04/21 01:24:43;;;;;;;;;3.75;3.75;;;;;;;;119876;1179;24888;-67
2023/04/21 01:27:19;;;;;;;;;5.00;4.00;;;;;;;;120202;1177;25384;-67
2023/04/21 01:29:50;;;;;;;;;2.00;2.00;;;;;;;;119913;1183;25398;-66
2023/04/21 01:32:22;;;;;;;;;3.00;3.00;;;;;;;;119895;1190;25447;-67
2023/04/21 01:34:51;;;;;;;;;5.50;4.25;;;;;;;;119919;1186;24787;-67
2023/04/21 01:37:22;;;;;;;;;8.00;4.50;;;;;;;;119887;1190;25638;-66
2023/04/21 01:39:53;;;;;;;;;3.00;3.00;;;;;;;;119899;1190;25590;-66
2023/04/21 01:42:24;;;;;;;;;4.00;3.00;;;;;;;;119924;1190;25298;-66
2023/04/21 01:44:55;;;;;;;;;5.00;5.00;;;;;;;;119921;1190;25360;-66
2023/04/21 01:47:24;;;;;;;;;3.00;3.00;;;;;;;;119885;1182;25577;-65
2023/04/21 01:49:52;;;;;;;;;2.67;2.67;;;;;;;;119897;1190;25673;-66
2023/04/21 01:52:20;;;;;;;;;4.00;2.50;;;;;;;;119940;1190;25677;-66
2023/04/21 01:54:48;;;;;;;;;3.33;3.33;;;;;;;;119905;1186;25264;-66
2023/04/21 01:57:17;;;;;;;;;4.33;3.67;;;;;;;;119919;1190;25615;-67
2023/04/21 01:59:45;;;;;;;;;4.75;4.25;;;;;;;;119919;1177;25400;-67
2023/04/21 02:02:13;;;;;;;;;3.25;3.25;;;;;;;;119904;1190;24842;-68
2023/04/21 02:04:42;;;;;;;;;6.00;3.75;;;;;;;;119947;1182;25158;-69
2023/04/21 02:07:10;;;;;;;;;4.00;3.00;;;;;;;;119933;1181;24852;-67
2023/04/21 02:09:38;;;;;;;;;5.00;3.50;;;;;;;;119928;1190;25335;-67
2023/04/21 02:12:06;;;;;;;;;5.00;3.50;;;;;;;;119919;1190;24874;-67
2023/04/21 02:14:36;;;;;;;;;3.00;3.00;;;;;;;;119890;1190;25494;-67
2023/04/21 02:17:04;;;;;;;;;3.25;3.25;;;;;;;;119925;1182;25642;-68
2023/04/21 02:19:32;;;;;;;;;8.25;4.25;;;;;;;;119929;1190;25096;-66
2023/04/21 02:22:00;;;;;;;;;4.67;3.33;;;;;;;;119931;1182;24907;-67
2023/04/21 02:24:29;;;;;;;;;3.00;3.00;;;;;;;;119917;1190;25653;-68
2023/04/21 02:26:57;;;;;;;;;4.00;4.00;;;;;;;;119861;1190;24817;-68
2023/04/21 02:29:25;;;;;;;;;2.67;1.33;;;;;;;;119914;1190;26003;-67
2023/04/21 02:31:53;;;;;;;;;2.75;2.75;;;;;;;;119878;1190;25209;-68
2023/04/21 02:34:32;;;;;;;;;4.00;4.00;;;;;;;;119926;1182;25301;-68
2023/04/21 02:37:01;;;;;;;;;4.00;3.50;;;;;;;;119918;1190;25153;-66
2023/04/21 02:39:29;;;;;;;;;4.75;3.00;;;;;;;;119897;1186;25175;-66
2023/04/21 02:41:57;;;;;;;;;4.67;3.67;;;;;;;;119898;1190;25468;-67
2023/04/21 02:44:26;;;;;;;;;3.75;3.75;;;;;;;;119928;1182;24716;-66
2023/04/21 02:46:54;;;;;;;;;3.33;3.33;;;;;;;;119893;1182;25686;-66
2023/04/21 02:49:22;;;;;;;;;6.00;3.75;;;;;;;;119915;1190;24965;-65
2023/04/21 02:51:50;;;;;;;;;5.50;4.00;;;;;;;;119901;1190;24897;-66
2023/04/21 02:54:18;;;;;;;;;4.00;3.67;;;;;;;;119918;1190;25403;-66
2023/04/21 02:56:46;;;;;;;;;3.00;3.00;;;;;;;;119940;1190;24745;-66
2023/04/21 02:59:15;;;;;;;;;3.00;3.00;;;;;;;;119921;1190;26033;-66
2023/04/21 03:01:43;;;;;;;;;3.00;3.00;;;;;;;;119917;1186;24688;-66
2023/04/21 03:04:12;;;;;;;;;3.67;3.67;;;;;;;;119912;1182;24859;-66
2023/04/21 03:06:40;;;;;;;;;2.67;2.33;;;;;;;;119887;1190;24876;-66
2023/04/21 03:09:08;;;;;;;;;1.50;1.50;;;;;;;;119941;1190;25182;-66
2023/04/21 03:11:36;;;;;;;;;2.00;2.00;;;;;;;;119917;1189;25565;-65
2023/04/21 03:14:04;;;;;;;;;5.75;3.25;;;;;;;;119892;1190;24790;-64
2023/04/21 03:16:33;;;;;;;;;4.33;3.00;;;;;;;;119929;1181;25034;-66
2023/04/21 03:19:01;;;;;;;;;5.00;4.25;;;;;;;;119891;1182;25526;-69
2023/04/21 03:21:30;;;;;;;;;4.25;3.00;;;;;;;;119898;1187;25122;-66
2023/04/21 03:23:58;;;;;;;;;4.33;2.33;;;;;;;;119874;1186;25617;-66
2023/04/21 03:26:26;;;;;;;;;4.67;4.00;;;;;;;;119918;1187;25375;-66
2023/04/21 03:28:55;;;;;;;;;5.00;4.00;;;;;;;;119914;1191;25601;-67
2023/04/21 03:31:23;;;;;;;;;4.00;4.00;;;;;;;;119928;1182;25346;-64
2023/04/21 03:33:51;;;;;;;;;4.00;4.00;;;;;;;;119928;1190;24804;-66
2023/04/21 03:36:22;;;;;;;;;3.00;3.00;;;;;;;;119903;1190;25115;-67
2023/04/21 03:38:50;;;;;;;;;3.75;3.75;;;;;;;;119904;1190;25361;-66
2023/04/21 03:41:18;;;;;;;;;5.00;3.50;;;;;;;;119912;1182;25326;-65
2023/04/21 03:43:50;;;;;;;;;4.00;3.00;;;;;;;;119903;1190;24904;-66
2023/04/21 03:46:21;;;;;;;;;6.00;3.00;;;;;;;;119731;1190;25761;-66
2023/04/21 03:48:50;;;;;;;;;4.25;3.00;;;;;;;;119886;1186;25607;-66
2023/04/21 03:51:19;;;;;;;;;4.00;4.00;;;;;;;;119917;1177;25145;-65
2023/04/21 03:53:48;;;;;;;;;4.25;3.25;;;;;;;;119926;1190;25601;-66
2023/04/21 03:56:16;;;;;;;;;5.00;3.00;;;;;;;;119931;1181;25457;-65
2023/04/21 03:58:44;;;;;;;;;4.00;2.33;;;;;;;;119935;1182;25629;-66
2023/04/21 04:01:12;;;;;;;;;3.25;3.25;;;;;;;;119726;1190;25383;-66
2023/04/21 04:03:40;;;;;;;;;5.50;3.75;;;;;;;;119928;1190;25332;-66
2023/04/21 04:06:08;;;;;;;;;2.67;2.67;;;;;;;;119935;1190;25731;-67
2023/04/21 04:08:37;;;;;;;;;4.00;4.00;;;;;;;;119915;1190;24800;-66
2023/04/21 04:11:05;;;;;;;;;3.00;3.00;;;;;;;;119875;1186;25316;-67
2023/04/21 04:13:33;;;;;;;;;4.00;3.75;;;;;;;;119906;1182;24730;-67
2023/04/21 04:16:01;;;;;;;;;4.33;3.00;;;;;;;;119923;1182;25457;-67
2023/04/21 04:18:29;;;;;;;;;3.75;3.00;;;;;;;;119923;1190;26276;-66
2023/04/21 04:20:58;;;;;;;;;5.00;4.00;;;;;;;;119926;1190;25464;-65
2023/04/21 04:23:26;;;;;;;;;3.00;2.33;;;;;;;;119913;1190;25359;-65
2023/04/21 04:25:55;;;;;;;;;3.50;3.00;;;;;;;;119926;1190;25130;-66
2023/04/21 04:28:23;;;;;;;;;2.33;2.00;;;;;;;;119913;1182;25301;-66
2023/04/21 04:30:51;;;;;;;;;2.33;2.33;;;;;;;;119933;1182;25590;-65
2023/04/21 04:33:20;;;;;;;;;4.00;3.00;;;;;;;;119922;1190;24910;-65
2023/04/21 04:35:48;;;;;;;;;2.67;2.67;;;;;;;;119886;1182;25102;-65
2023/04/21 04:38:16;;;;;;;;;4.00;4.00;;;;;;;;119910;1183;24680;-65
2023/04/21 04:40:44;;;;;;;;;4.50;3.50;;;;;;;;119901;1190;25461;-66
2023/04/21 04:43:13;;;;;;;;;4.00;4.00;;;;;;;;119927;1190;24704;-66
2023/04/21 04:45:42;;;;;;;;;5.33;4.67;;;;;;;;119896;1187;24807;-65
2023/04/21 04:48:10;;;;;;;;;6.33;5.00;;;;;;;;119906;1190;25311;-65
2023/04/21 04:50:39;;;;;;;;;3.25;3.25;;;;;;;;119922;1190;24746;-67
2023/04/21 04:53:07;;;;;;;;;6.33;6.00;;;;;;;;119938;1190;25607;-67
2023/04/21 04:55:35;;;;;;;;;6.25;4.00;;;;;;;;119908;1182;25335;-65
2023/04/21 04:58:04;;;;;;;;;3.67;3.00;;;;;;;;119911;1190;25198;-65
2023/04/21 05:00:32;;;;;;;;;3.50;3.50;;;;;;;;119915;1182;25467;-63
2023/04/21 05:03:00;;;;;;;;;9.00;5.00;;;;;;;;119894;1182;25209;-63
2023/04/21 05:05:29;;;;;;;;;10.25;4.00;;;;;;;;119911;1190;25427;-63
2023/04/21 05:07:57;;;;;;;;;4.33;4.33;;;;;;;;119907;1190;24683;-63
2023/04/21 05:10:25;;;;;;;;;5.67;4.00;;;;;;;;119912;1177;25588;-61
2023/04/21 05:12:53;;;;;;;;;3.50;3.00;;;;;;;;119907;1190;24955;-62
2023/04/21 05:15:22;;;;;;;;;6.00;3.00;;;;;;;;119918;1177;25682;-61
2023/04/21 05:17:50;;;;;;;;;3.00;3.00;;;;;;;;119880;1190;25146;-61
2023/04/21 05:20:18;;;;;;;;;7.67;5.67;;;;;;;;119881;1190;25391;-60
2023/04/21 05:22:47;;;;;;;;;6.00;6.00;;;;;;;;119922;1182;25042;-61
2023/04/21 05:25:15;;;;;;;;;7.67;6.67;;;;;;;;119855;1190;25287;-60
2023/04/21 05:27:45;;;;;;;;;8.00;7.00;;;;;;;;119870;1191;24949;-60
2023/04/21 05:30:15;;;;;;;;;8.75;7.50;;;;;;;;119894;1190;25463;-66
2023/04/21 05:32:44;;;;;;;;;6.00;5.50;;;;;;;;119916;1186;25513;-61
2023/04/21 05:35:12;;;;;;;;;6.50;5.00;;;;;;;;119910;1190;25201;-60
2023/04/21 05:37:42;;;;;;;;;10.00;6.00;;;;;;;;119902;1190;25317;-60
2023/04/21 05:40:10;;;;;;;;;10.00;5.33;;;;;;;;119885;1190;24901;-59
2023/04/21 05:42:41;;;;;;;;;9.25;5.50;;;;;;;;119887;1190;25156;-65
2023/04/21 05:45:12;;;;;;;;;8.00;5.33;;;;;;;;119914;1190;25505;-62
2023/04/21 05:47:40;;;;;;;;;10.50;6.00;;;;;;;;119701;1184;24780;-64
2023/04/21 05:50:12;;;;;;;;;6.75;6.25;;;;;;;;119902;1190;24920;-64
2023/04/21 05:52:41;;;;;;;;;8.00;6.00;;;;;;;;119910;1190;24694;-64
2023/04/21 05:55:10;;;;;;;;;8.50;7.00;;;;;;;;119892;1190;24697;-65
2023/04/21 05:57:38;;;;;;;;;7.00;4.33;;;;;;;;119907;1190;25556;-63
2023/04/21 06:00:08;;;;;;;;;6.50;4.50;;;;;;;;119928;1190;25449;-64
2023/04/21 06:02:39;;;;;;;;;5.25;5.00;;;;;;;;119914;1190;24758;-65
2023/04/21 06:05:07;;;;;;;;;7.67;4.33;;;;;;;;119918;1190;25127;-66
2023/04/21 06:07:39;;;;;;;;;9.75;7.00;;;;;;;;119866;1186;25101;-60
2023/04/21 06:10:13;;;;;;;;;7.75;6.00;;;;;;;;119906;1182;25020;-61
2023/04/21 06:12:43;;;;;;;;;11.33;7.67;;;;;;;;119786;1190;24840;-61
2023/04/21 06:15:13;;;;;;;;;7.25;6.75;;;;;;;;119922;1189;25279;-64
2023/04/21 06:17:42;;;;;;;;;9.25;6.00;;;;;;;;119860;1180;25743;-61
2023/04/21 06:20:11;;;;;;;;;9.25;5.00;;;;;;;;119898;1190;24997;-64
2023/04/21 06:22:39;;;;;;;;;9.50;6.50;;;;;;;;119861;1190;25584;-64
2023/04/21 06:25:13;;;;;;;;;6.67;6.33;;;;;;;;119914;1190;25349;-63
2023/04/21 06:27:41;;;;;;;;;11.00;6.50;;;;;;;;119930;1186;25049;-61
2023/04/21 06:30:10;;;;;;;;;7.50;6.00;;;;;;;;119700;1191;24931;-62
2023/04/21 06:32:39;;;;;;;;;11.50;8.00;;;;;;;;119849;1190;25627;-61
2023/04/21 06:35:10;;;;;;;;;16.25;10.00;;;;;;;;119935;1181;25448;-62
2023/04/21 06:37:39;;;;;;;;;8.00;5.00;;;;;;;;119929;1182;25480;-64
2023/04/21 06:40:08;;;;;;;;;7.33;7.00;;;;;;;;119888;1190;25158;-64
2023/04/21 06:42:36;;;;;;;;;7.25;5.75;;;;;;;;119936;1183;25497;-62
2023/04/21 06:45:06;;;;;;;;;11.00;7.67;;;;;;;;119883;1191;25747;-71
2023/04/21 06:47:34;;;;;;;;;10.25;6.50;;;;;;;;119856;1190;25158;-74
2023/04/21 06:50:02;;;;;;;;;13.50;8.25;;;;;;;;119898;1186;25428;-73
2023/04/21 06:52:30;;;;;;;;;14.25;8.75;;;;;;;;119894;1190;25562;-74
2023/04/21 06:54:58;;;;;;;;;11.25;6.25;;;;;;;;119712;1190;25688;-73
2023/04/21 06:57:28;;;;;;;;;9.33;6.67;;;;;;;;119913;1190;25400;-74
2023/04/21 06:59:57;;;;;;;;;11.25;9.25;;;;;;;;119915;1190;25089;-77
2023/04/21 07:02:25;;;;;;;;;9.00;7.75;;;;;;;;119919;1190;24688;-73
2023/04/21 07:04:54;;;;;;;;;11.50;7.50;;;;;;;;119915;1190;25391;-76
2023/04/21 07:07:24;;;;;;;;;8.00;8.00;;;;;;;;119939;1182;25401;-75
2023/04/21 07:09:54;;;;;;;;;8.67;4.67;;;;;;;;119931;1190;25522;-76
2023/04/21 07:12:24;;;;;;;;;8.00;8.00;;;;;;;;119921;1190;24898;-63
2023/04/21 07:14:55;;;;;;;;;7.00;6.00;;;;;;;;119874;1190;25232;-68
2023/04/21 07:17:25;;;;;;;;;10.25;8.25;;;;;;;;119913;1181;25136;-68
2023/04/21 07:19:54;;;;;;;;;11.00;8.75;;;;;;;;119881;1190;25215;-68
2023/04/21 07:22:25;;;;;;;;;11.25;10.25;;;;;;;;119920;1190;25644;-68
2023/04/21 07:24:54;;;;;;;;;13.67;10.00;;;;;;;;119877;1190;25025;-71
2023/04/21 07:27:22;;;;;;;;;13.67;10.33;;;;;;;;119896;1182;24838;-66
2023/04/21 07:29:51;;;;;;;;;12.00;9.00;;;;;;;;119924;1190;25479;-67
2023/04/21 07:32:19;;;;;;;;;12.75;11.75;;;;;;;;119925;1190;25481;-70
2023/04/21 07:34:47;;;;;;;;;8.50;8.00;;;;;;;;119894;1190;25108;-68
2023/04/21 07:37:16;;;;;;;;;12.50;10.25;;;;;;;;119900;1190;24966;-65
2023/04/21 07:39:48;;;;;;;;;16.00;10.50;;;;;;;;119721;1190;25327;-64
2023/04/21 07:42:16;;;;;;;;;8.00;8.00;;;;;;;;119890;1186;24854;-67
2023/04/21 07:44:44;;;;;;;;;10.75;9.00;;;;;;;;119904;1190;24745;-65
2023/04/21 07:47:13;;;;;;;;;13.50;10.00;;;;;;;;119909;1190;25537;-68
2023/04/21 07:49:41;;;;;;;;;10.00;9.00;;;;;;;;119716;1190;25656;-69
2023/04/21 07:52:12;;;;;;;;;10.33;10.00;;;;;;;;119906;1190;24920;-70
2023/04/21 07:54:41;;;;;;;;;9.67;8.33;;;;;;;;119923;1190;24801;-73
2023/04/21 07:57:12;;;;;;;;;11.00;7.00;;;;;;;;119892;1190;25169;-65
2023/04/21 07:59:42;;;;;;;;;14.67;9.67;;;;;;;;119870;1190;25289;-65
2023/04/21 08:02:10;;;;;;;;;14.00;9.50;;;;;;;;119721;1183;25764;-65
2023/04/21 08:04:39;;;;;;;;;10.67;9.33;;;;;;;;119741;1190;25725;-67
2023/04/21 08:07:08;;;;;;;;;10.67;9.33;;;;;;;;119902;1190;25375;-66
2023/04/21 08:09:37;;;;;;;;;9.25;6.75;;;;;;;;119921;1190;25349;-67
2023/04/21 08:12:08;;;;;;;;;8.00;7.00;;;;;;;;119892;1190;25201;-67
2023/04/21 08:14:36;;;;;;;;;12.00;10.00;;;;;;;;119915;1190;25253;-65
2023/04/21 08:17:05;;;;;;;;;8.00;7.75;;;;;;;;119918;1190;25118;-77
2023/04/21 08:19:35;;;;;;;;;9.50;7.75;;;;;;;;119932;1190;25206;-77
2023/04/21 08:22:05;;;;;;;;;9.67;9.67;;;;;;;;120017;1181;24917;-78
2023/04/21 08:24:35;;;;;;;;;11.00;8.67;;;;;;;;119917;1190;25970;-68
2023/04/21 08:27:03;;;;;;;;;10.50;9.00;;;;;;;;119924;1190;25229;-67
2023/04/21 08:29:32;;;;;;;;;12.00;7.50;;;;;;;;119926;1190;25788;-67
2023/04/21 08:32:00;;;;;;;;;10.25;8.00;;;;;;;;119925;1186;25104;-68
2023/04/21 08:34:28;;;;;;;;;11.25;10.00;;;;;;;;119957;1182;25067;-68
2023/04/21 08:36:57;;;;;;;;;10.00;8.00;;;;;;;;119916;1182;24997;-67
2023/04/21 08:39:26;;;;;;;;;8.00;7.25;;;;;;;;119905;1182;25110;-66
2023/04/21 08:41:55;;;;;;;;;9.00;7.67;;;;;;;;119888;1190;25607;-68
2023/04/21 08:44:23;;;;;;;;;10.00;10.00;;;;;;;;119739;1183;24807;-67
2023/04/21 08:46:53;;;;;;;;;9.67;8.00;;;;;;;;119928;1190;25522;-68
2023/04/21 08:49:23;;;;;;;;;11.00;8.67;;;;;;;;119739;1180;25788;-68
2023/04/21 08:51:53;;;;;;;;;10.67;7.33;;;;;;;;119895;1190;24756;-68
2023/04/21 08:54:22;;;;;;;;;8.00;7.50;;;;;;;;119941;1182;25666;-69
2023/04/21 08:56:52;;;;;;;;;9.00;7.25;;;;;;;;119912;1190;25319;-69
2023/04/21 08:59:38;;;;;;;;;8.00;8.00;;;;;;;;119924;1190;25565;-67
2023/04/21 09:02:08;;;;;;;;;8.00;7.25;;;;;;;;119899;1190;24990;-70
2023/04/21 09:04:38;;;;;;;;;8.75;8.00;;;;;;;;119918;1182;25204;-69
2023/04/21 09:07:07;;;;;;;;;7.75;7.75;;;;;;;;119878;1190;25511;-70
2023/04/21 09:09:59;;;;;;;;;9.67;7.33;;;;;;;;119902;1182;25169;-72
2023/04/21 09:12:28;;;;;;;;;5.75;5.75;;;;;;;;119837;1190;25210;-72
2023/04/21 09:14:57;;;;;;;;;10.00;7.50;;;;;;;;119731;1190;25570;-70
2023/04/21 09:17:31;;;;;;;;;9.00;8.00;;;;;;;;119698;1190;25040;-66
2023/04/21 09:20:20;;;;;;;;;11.00;8.75;;;;;;;;119932;1190;24779;-65
2023/04/21 09:22:50;;;;;;;;;8.00;7.00;;;;;;;;119899;1190;25598;-66
2023/04/21 09:25:20;;;;;;;;;7.00;6.00;;;;;;;;119858;1190;25066;-66
2023/04/21 09:27:48;;;;;;;;;9.25;7.75;;;;;;;;119728;1190;24854;-66
2023/04/21 09:30:19;;;;;;;;;6.33;6.33;;;;;;;;119905;1186;25410;-65
2023/04/21 09:32:48;;;;;;;;;11.33;7.67;;;;;;;;119929;1182;25541;-65
2023/04/21 09:35:16;;;;;;;;;7.00;5.00;;;;;;;;119725;1190;24946;-65
2023/04/21 09:37:47;;;;;;;;;11.00;7.50;;;;;;;;119923;1182;25482;-66
2023/04/21 09:40:18;;;;;;;;;6.75;6.75;;;;;;;;119930;1177;24831;-64
2023/04/21 09:42:46;;;;;;;;;12.00;8.00;;;;;;;;119900;1190;25648;-65
2023/04/21 09:45:17;;;;;;;;;7.25;6.25;;;;;;;;119902;1182;24866;-65
2023/04/21 09:47:53;;;;;;;;;10.75;7.00;;;;;;;;119936;1190;25609;-64
2023/04/21 09:50:23;;;;;;;;;10.00;6.00;;;;;;;;119892;1190;25414;-65
2023/04/21 09:53:18;;;;;;;;;6.25;5.50;;;;;;;;119891;1190;25290;-64
2023/04/21 09:55:50;;;;;;;;;6.00;5.67;;;;;;;;119720;1191;25282;-63
2023/04/21 09:58:23;;;;;;;;;8.50;7.00;;;;;;;;119850;1190;25436;-70
2023/04/21 10:00:52;;;;;;;;;8.25;7.00;;;;;;;;119922;1190;25106;-71
2023/04/21 10:03:23;;;;;;;;;7.75;6.00;;;;;;;;119894;1190;25487;-71
2023/04/21 10:05:51;;;;;;;;;9.50;7.00;;;;;;;;119924;1190;24728;-70
2023/04/21 10:08:20;;;;;;;;;7.67;7.00;;;;;;;;119916;1181;25641;-71
2023/04/21 10:10:48;;;;;;;;;10.25;6.75;;;;;;;;119869;1182;24820;-68
2023/04/21 10:13:17;;;;;;;;;9.25;7.00;;;;;;;;119918;1190;24845;-64
2023/04/21 10:15:45;;;;;;;;;9.75;8.00;;;;;;;;119918;1190;25201;-65
2023/04/21 10:18:23;;;;;;;;;5.67;4.00;;;;;;;;119920;1190;25223;-67
2023/04/21 10:21:02;;;;;;;;;7.67;5.67;;;;;;;;119885;1182;25153;-70
2023/04/21 10:23:42;;;;;;;;;8.00;7.00;;;;;;;;119892;1190;25571;-65
2023/04/21 10:26:18;;;;;;;;;3.75;3.75;;;;;;;;119931;1182;25341;-65
2023/04/21 10:29:27;;;;;;;;;7.25;7.25;;;;;;;;119917;1190;25341;-66
2023/04/21 10:31:59;;;;;;;;;9.33;8.00;;;;;;;;119687;1190;25503;-67
2023/04/21 10:34:37;;;;;;;;;6.00;5.00;;;;;;;;119895;1182;25117;-66
2023/04/21 10:37:06;;;;;;;;;6.33;6.33;;;;;;;;119765;1184;24822;-66
2023/04/21 10:40:08;;;;;;;;;8.00;8.00;;;;;;;;119948;1181;25173;-65
2023/04/21 10:42:36;;;;;;;;;11.25;7.00;;;;;;;;119804;1190;26134;-65
2023/04/21 10:45:07;;;;;;;;;10.00;7.75;;;;;;;;119908;1190;25352;-64
2023/04/21 10:47:43;;;;;;;;;9.00;8.50;;;;;;;;119922;1190;25531;-66
2023/04/21 10:50:16;;;;;;;;;13.75;10.75;;;;;;;;119916;1181;25974;-64
2023/04/21 10:52:55;;;;;;;;;9.75;8.50;;;;;;;;119930;1182;25204;-65
2023/04/21 10:55:28;;;;;;;;;8.33;8.33;;;;;;;;119928;1190;24968;-67
2023/04/21 10:57:57;;;;;;;;;6.00;5.00;;;;;;;;119713;1183;24944;-65
2023/04/21 11:00:26;;;;;;;;;5.75;5.25;;;;;;;;119908;1182;25514;-64
2023/04/21 11:02:56;;;;;;;;;7.67;7.33;;;;;;;;119925;1190;25352;-65
2023/04/21 11:05:39;;;;;;;;;9.00;5.33;;;;;;;;119806;1191;25796;-67
2023/04/21 11:08:13;;;;;;;;;10.00;8.33;;;;;;;;119905;1191;24923;-64
2023/04/21 11:10:44;;;;;;;;;11.00;8.00;;;;;;;;119802;1189;25632;-64
2023/04/21 11:13:12;;;;;;;;;6.00;6.00;;;;;;;;119817;1191;25170;-66
2023/04/21 11:15:41;;;;;;;;;8.67;7.33;;;;;;;;119804;1183;25615;-66
2023/04/21 11:18:09;;;;;;;;;8.67;8.67;;;;;;;;119783;1183;25527;-66
2023/04/21 11:20:41;;;;;;;;;6.67;6.00;;;;;;;;119925;1187;24880;-68
2023/04/21 11:23:09;;;;;;;;;10.33;7.00;;;;;;;;119906;1182;25635;-67
2023/04/21 11:25:37;;;;;;;;;8.25;7.00;;;;;;;;119778;1191;24863;-68
2023/04/21 11:28:05;;;;;;;;;5.00;5.00;;;;;;;;119914;1186;25321;-67
2023/04/21 11:30:34;;;;;;;;;9.67;8.00;;;;;;;;119925;1182;25226;-68
2023/04/21 11:33:02;;;;;;;;;9.25;8.00;;;;;;;;119887;1190;25107;-69
2023/04/21 11:35:31;;;;;;;;;10.00;7.00;;;;;;;;119941;1181;25451;-67
2023/04/21 11:38:04;;;;;;;;;9.50;7.00;;;;;;;;119893;1182;25230;-67
2023/04/21 11:40:59;;;;;;;;;6.25;6.00;;;;;;;;119899;1190;25124;-67
2023/04/21 11:43:27;;;;;;;;;10.50;6.50;;;;;;;;119895;1190;24752;-67
2023/04/21 11:46:16;;;;;;;;;13.00;9.00;;;;;;;;119875;1190;25124;-67
2023/04/21 11:48:45;;;;;;;;;8.25;5.50;;;;;;;;119908;1190;24757;-68
2023/04/21 11:51:15;;;;;;;;;12.00;7.00;;;;;;;;119900;1190;25225;-67
2023/04/21 11:53:46;;;;;;;;;8.25;8.00;;;;;;;;119886;1190;25612;-69
2023/04/21 11:56:20;;;;;;;;;7.50;5.50;;;;;;;;119892;1190;24959;-67
2023/04/21 11:58:51;;;;;;;;;9.25;8.00;;;;;;;;119892;1190;24945;-69
2023/04/21 12:01:20;;;;;;;;;9.67;8.00;;;;;;;;119725;1184;25313;-70
2023/04/21 12:03:53;;;;;;;;;8.25;7.00;;;;;;;;119906;1190;24859;-70
2023/04/21 12:06:22;;;;;;;;;8.50;8.00;;;;;;;;119906;1190;24988;-70
2023/04/21 12:09:17;;;;;;;;;8.33;8.00;;;;;;;;119731;1183;24713;-71
2023/04/21 12:11:51;;;;;;;;;9.33;7.00;;;;;;;;119953;1190;25470;-70
2023/04/21 12:14:21;;;;;;;;;8.25;7.50;;;;;;;;119895;1182;24906;-71
2023/04/21 12:16:52;;;;;;;;;10.75;7.75;;;;;;;;119933;1181;25034;-70
2023/04/21 12:19:41;;;;;;;;;10.25;8.00;;;;;;;;119917;1190;24774;-69
2023/04/21 12:22:12;;;;;;;;;13.00;13.00;;;;;;;;119930;1181;25416;-69
2023/04/21 12:24:41;;;;;;;;;12.00;11.00;;;;;;;;119915;1190;25012;-68
2023/04/21 12:27:10;;;;;;;;;10.00;9.67;;;;;;;;119939;1190;25146;-63
2023/04/21 12:29:39;;;;;;;;;13.00;9.00;;;;;;;;119732;1183;25317;-62
2023/04/21 12:32:08;;;;;;;;;12.00;11.00;;;;;;;;119918;1181;25630;-63
2023/04/21 12:34:37;;;;;;;;;11.50;8.50;;;;;;;;119736;1190;24971;-62
2023/04/21 12:37:06;;;;;;;;;10.67;8.33;;;;;;;;119936;1182;24855;-62
2023/04/21 12:39:34;;;;;;;;;11.67;8.67;;;;;;;;119944;1190;25241;-62
2023/04/21 12:42:02;;;;;;;;;11.33;10.00;;;;;;;;119942;1182;25211;-62
2023/04/21 12:44:31;;;;;;;;;11.00;10.25;;;;;;;;119932;1177;25570;-62
2023/04/21 12:46:59;;;;;;;;;8.50;8.50;;;;;;;;119915;1190;25124;-62
2023/04/21 12:49:27;;;;;;;;;11.75;11.00;;;;;;;;119731;1190;24831;-62
2023/04/21 12:51:55;;;;;;;;;10.00;8.25;;;;;;;;119900;1190;25270;-64
2023/04/21 12:54:24;;;;;;;;;10.50;10.00;;;;;;;;119877;1190;25221;-64
2023/04/21 12:56:52;;;;;;;;;14.00;8.50;;;;;;;;119918;1190;24779;-64
2023/04/21 12:59:20;;;;;;;;;10.00;9.33;;;;;;;;119935;1181;24952;-64
2023/04/21 13:01:49;;;;;;;;;12.50;9.50;;;;;;;;119927;1186;24930;-65
2023/04/21 13:04:18;;;;;;;;;9.00;9.00;;;;;;;;119742;1183;25265;-63
2023/04/21 13:06:46;;;;;;;;;11.33;9.33;;;;;;;;119929;1190;25488;-64
2023/04/21 13:09:15;;;;;;;;;16.00;11.00;;;;;;;;119936;1190;25138;-61
2023/04/21 13:11:44;;;;;;;;;8.75;8.25;;;;;;;;119898;1190;25592;-62
2023/04/21 13:14:13;;;;;;;;;8.67;8.67;;;;;;;;119924;1181;24959;-62
2023/04/21 13:16:41;;;;;;;;;9.25;8.25;;;;;;;;119921;1190;25138;-60
2023/04/21 13:19:09;;;;;;;;;10.67;10.33;;;;;;;;119909;1190;25237;-60
2023/04/21 13:21:37;;;;;;;;;11.50;8.75;;;;;;;;119900;1190;25597;-60
2023/04/21 13:24:06;;;;;;;;;9.00;8.00;;;;;;;;119910;1190;25370;-63
2023/04/21 13:26:34;;;;;;;;;8.50;7.00;;;;;;;;119912;1182;25239;-61
2023/04/21 13:29:03;;;;;;;;;12.50;9.00;;;;;;;;119940;1181;25271;-61
2023/04/21 13:31:31;;;;;;;;;11.25;9.00;;;;;;;;119916;1190;25499;-61
2023/04/21 13:34:00;;;;;;;;;12.33;11.00;;;;;;;;119908;1190;25163;-70
2023/04/21 13:36:28;;;;;;;;;13.50;11.75;;;;;;;;119721;1190;25050;-63
2023/04/21 13:38:58;;;;;;;;;12.00;9.00;;;;;;;;119902;1190;25707;-64
2023/04/21 13:41:26;;;;;;;;;14.67;10.00;;;;;;;;119898;1190;24982;-63
2023/04/21 13:43:54;;;;;;;;;11.50;10.00;;;;;;;;119934;1190;25073;-63
2023/04/21 13:46:23;;;;;;;;;8.00;8.00;;;;;;;;119910;1190;25171;-63
2023/04/21 13:48:51;;;;;;;;;12.33;10.00;;;;;;;;119901;1190;25110;-64
2023/04/21 13:51:19;;;;;;;;;11.00;10.75;;;;;;;;119922;1190;25660;-69
2023/04/21 13:53:48;;;;;;;;;13.50;9.00;;;;;;;;119909;1190;25280;-66
2023/04/21 13:56:16;;;;;;;;;14.00;9.25;;;;;;;;119898;1190;25217;-62
2023/04/21 13:58:44;;;;;;;;;10.33;6.33;;;;;;;;119895;1190;25612;-63
2023/04/21 14:01:13;;;;;;;;;10.25;9.25;;;;;;;;119919;1190;25614;-64
2023/04/21 14:03:41;;;;;;;;;9.67;9.33;;;;;;;;119900;1190;25379;-63
2023/04/21 14:06:10;;;;;;;;;12.00;10.00;;;;;;;;119919;1190;25103;-63
2023/04/21 14:08:38;;;;;;;;;8.00;7.75;;;;;;;;119907;1190;24821;-63
2023/04/21 14:11:06;;;;;;;;;9.67;8.00;;;;;;;;119933;1181;25126;-63
2023/04/21 14:13:34;;;;;;;;;11.00;9.33;;;;;;;;119885;1190;25269;-63
2023/04/21 14:16:19;;;;;;;;;8.67;8.33;;;;;;;;119915;1190;25501;-62
2023/04/21 14:18:47;;;;;;;;;9.50;8.00;;;;;;;;119917;1190;25846;-63
2023/04/21 14:21:15;;;;;;;;;9.25;9.25;;;;;;;;119903;1190;24922;-62
2023/04/21 14:23:43;;;;;;;;;11.50;8.50;;;;;;;;119945;1190;25531;-62
2023/04/21 14:26:11;;;;;;;;;10.33;8.67;;;;;;;;119926;1190;24851;-62
2023/04/21 14:28:39;;;;;;;;;10.50;8.50;;;;;;;;119923;1181;25123;-62
2023/04/21 14:31:07;;;;;;;;;12.33;10.67;;;;;;;;119920;1190;26215;-62
2023/04/21 14:33:36;;;;;;;;;10.25;8.00;;;;;;;;119926;1186;25056;-62
2023/04/21 14:36:04;;;;;;;;;8.75;7.00;;;;;;;;119941;1181;24857;-62
2023/04/21 14:38:33;;;;;;;;;9.00;9.00;;;;;;;;119922;1190;25669;-63
2023/04/21 14:41:01;;;;;;;;;8.00;8.00;;;;;;;;119926;1190;25638;-63